Αναφορές METAR από Ελληνικά Αεροδρόμια

Σε αυτή τη σελίδα, μπορείτε να παρακολουθείτε τις αναφορές METAR που προέρχονται από τα κυριότερα αεροδρόμια της Ελλάδας. Το περιεχόμενο αποκωδικοποιείται, οπτικοποιείται και γίνεται κατανοητό από τον καθένα με τη χρήση του όμορφου δίγλωσσου γραφικού περιβάλλοντος του meteothes.gr!

Η αρχική κωδικοποιημένη αναφορά, συμπεριλαμβάνεται επίσης στο κάτω μέρος. Σε όποια καθεστερεί η ενημέρωση, το προειδοποιητικό μήνυμα "Μη ενημερωμένο METAR!" εμφανίζεται στο πάνω μέρος της με κόκκινα γράμματα.

Εχουν προστεθεί επίσης δύο αεροδρόμια από γειτονικές χώρες, την Οχρίδα(ΠΓΔΜ) και την Σόφια(Βουλγαρία) για να ελέγχουμε την εξέλιξη των ψυχρών εισβολών από τα Βόρεια!

LGTS - Thessaloniki/Makedonia-Elev 7m
Απόσταση από meteothes.gr: Ν 13km
Ενημερώθηκε: 25/06/2019 21:50
Καταιγίδα με βροχή, Μερικώς νεφελώδης
Καταιγίδα με βροχή, Μερικώς νεφελώδης
 Ανεμος από Β
Ανεμος: Β 22 km/h
Θερμοκρασία: 28°C
Δείκτη Δυσφορίας: 29°C
Σημ. Δρόσου: 20°C
Υγρασία: 62%
Βαρόμετρο: 1016 hPa
Συνθήκες: Thunderstorm Rain
Νέφωση: Μερικώς νεφελώδης
Ορατότητα: 10 km
Λεπτομέρειες Νεφών: Διάσπαρτα Nέφη 610 m
Διάσπαρτα Nέφη 762 m
Μερικώς νεφελώδης 914 m
2019/06/25 18:50 LGTS 251850Z 36012KT 9999 TSRA FEW020CB FEW025TCU SCT030 28/20 Q1016 NOSIG
LGAV - Athens/Elef. Venizelos-Elev 94m
Απόσταση από meteothes.gr: ΝΝΑ 312km
Ενημερώθηκε: 25/06/2019 21:50
Αίθριος
Αίθριος
 Ανεμος από ΒΒΔ
Ανεμος: ΒΒΔ 26 km/h
Θερμοκρασία: 29°C
Δείκτη Δυσφορίας: 29°C
Σημ. Δρόσου: 15°C
Υγρασία: 43%
Βαρόμετρο: 1013 hPa
Συνθήκες: Αίθριος
Ορατότητα: πάνω από 10 km
2019/06/25 18:50 LGAV 251850Z 34014KT 310V020 CAVOK 29/15 Q1013 NOSIG
 
LGAL - Alexandroupolis-Elev 3m
Απόσταση από meteothes.gr: Α 251km
Ενημερώθηκε: 25/06/2019 21:50
Διάσπαρτα Nέφη
Διάσπαρτα Nέφη
 Ανεμος από Β
Ανεμος: Β 24 km/h
Θερμοκρασία: 27°C
Δείκτη Δυσφορίας: 28°C
Σημ. Δρόσου: 18°C
Υγρασία: 58%
Βαρόμετρο: 1016 hPa
Νέφωση: Διάσπαρτα Nέφη
Ορατότητα: 10 km
Λεπτομέρειες Νεφών: Διάσπαρτα Nέφη 914 m
2019/06/25 18:50 LGAL 251850Z 01013KT 9999 FEW030 27/18 Q1016
LGKV - Kavala/Crysoupolis-Elev 5m
Απόσταση από meteothes.gr: ΑΒΑ 144km
Ενημερώθηκε: 25/06/2019 21:50
Διάσπαρτα Nέφη
Διάσπαρτα Nέφη
 Ανεμος από ΑΒΑ
Ανεμος: ΑΒΑ 15 km/h
Θερμοκρασία: 28°C
Δείκτη Δυσφορίας: 29°C
Σημ. Δρόσου: 18°C
Υγρασία: 55%
Βαρόμετρο: 1016 hPa
Νέφωση: Διάσπαρτα Nέφη
Ορατότητα: 10 km
Λεπτομέρειες Νεφών: Διάσπαρτα Nέφη 1067 m
2019/06/25 18:50 LGKV 251850Z 06008KT 9999 FEW035 28/18 Q1016
 
LGSK - Skiathos Island-Elev 15m
Απόσταση από meteothes.gr: ΝΝΑ 168km
Ενημερώθηκε: 25/06/2019 21:50
Αίθριος
Αίθριος
 Ανεμος από άπνοια
Ανεμος: άπνοια
Θερμοκρασία: 27°C
Δείκτη Δυσφορίας: 29°C
Σημ. Δρόσου: 20°C
Υγρασία: 66%
Βαρόμετρο: 1015 hPa
Συνθήκες: Αίθριος
Ορατότητα: πάνω από 10 km
2019/06/25 18:50 LGSK 251850Z 00000KT CAVOK 27/20 Q1015
LGLM - Limnos Island-Elev 5m
Απόσταση από meteothes.gr: ΑΝΑ 210km
Ενημερώθηκε: 25/06/2019 21:50
Αίθριος
Αίθριος
 Ανεμος από ΒΑ
Ανεμος: ΒΑ 19 km/h
Θερμοκρασία: 27°C
Δείκτη Δυσφορίας: 29°C
Σημ. Δρόσου: 20°C
Υγρασία: 66%
Βαρόμετρο: 1014 hPa
Συνθήκες: Αίθριος
Ορατότητα: πάνω από 10 km
2019/06/25 18:50 LGLM 251850Z 04010KT CAVOK 27/20 Q1014
 
LGMT - Mitilini Island-Elev 17m
Απόσταση από meteothes.gr: ΑΝΑ 358km
Ενημερώθηκε: 25/06/2019 21:50
Αίθριος
Αίθριος
 Ανεμος από ΒΔ
Ανεμος: ΒΔ 17 km/h
Θερμοκρασία: 29°C
Δείκτη Δυσφορίας: 31°C
Σημ. Δρόσου: 20°C
Υγρασία: 58%
Βαρόμετρο: 1012 hPa
Συνθήκες: Αίθριος
Ορατότητα: πάνω από 10 km
2019/06/25 18:50 LGMT 251850Z 31009KT 270V360 CAVOK 29/20 Q1012
LGSY - Skiros Island-Elev 15m
Απόσταση από meteothes.gr: ΝΑ 227km
Ενημερώθηκε: 25/06/2019 20:50
Διάσπαρτα Nέφη
Διάσπαρτα Nέφη
 Ανεμος από ΒΔ
Ανεμος: ΒΔ 24 km/h
Θερμοκρασία: 26°C
Σημ. Δρόσου: 21°C
Υγρασία: 74%
Βαρόμετρο: 1014 hPa
Νέφωση: Διάσπαρτα Nέφη
Ορατότητα: 10 km
Λεπτομέρειες Νεφών: Διάσπαρτα Nέφη 610 m
2019/06/25 17:50 LGSY 251750Z 32013KT 9999 FEW020 26/21 Q1014 BLU
 
LGKZ - Kozani-Elev 628m
Απόσταση από meteothes.gr: ΔΝΔ 102km
Ενημερώθηκε: 25/06/2019 21:50

 Ανεμος από ΒΔ
Ανεμος: ΒΔ 9 km/h
Θερμοκρασία: 22°C
Σημ. Δρόσου: 13°C
Υγρασία: 57%
Βαρόμετρο: 1021 hPa
2019/06/25 18:50 LGKZ 251850Z AUTO 32005KT //// // ////// 22/13 Q1021 RE//
LGIO - Ioannina-Elev 476m
Απόσταση από meteothes.gr: ΔΝΔ 209km
Ενημερώθηκε: 25/06/2019 21:50
Διάσπαρτα Nέφη
Διάσπαρτα Nέφη
 Ανεμος από μεταβλητός
Ανεμος: μεταβλητός 0 km/h
Θερμοκρασία: 25°C
Σημ. Δρόσου: 18°C
Υγρασία: 65%
Βαρόμετρο: 1017 hPa
Νέφωση: Διάσπαρτα Nέφη
Ορατότητα: 10 km
Λεπτομέρειες Νεφών: Διάσπαρτα Nέφη 1219 m
2019/06/25 18:50 LGIO 251850Z /////KT 9999 FEW040 25/18 Q1017
 
LGZA - Zakinthos-Elev 3m
Απόσταση από meteothes.gr: ΝΝΔ 367km
Ενημερώθηκε: 25/06/2019 21:50
Διάσπαρτα Nέφη
Διάσπαρτα Nέφη
 Ανεμος από Β
Ανεμος: Β 11 km/h
Θερμοκρασία: 28°C
Δείκτη Δυσφορίας: 30°C
Σημ. Δρόσου: 21°C
Υγρασία: 66%
Βαρόμετρο: 1014 hPa
Νέφωση: Διάσπαρτα Nέφη
Ορατότητα: 10 km
Λεπτομέρειες Νεφών: Διάσπαρτα Nέφη 610 m
2019/06/25 18:50 LGZA 251850Z 35006KT 9999 FEW020 28/21 Q1014
LGKR - Corfu Island-Elev 2m
Απόσταση από meteothes.gr: ΔΝΔ 282km
Ενημερώθηκε: 25/06/2019 21:50
Αίθριος
Αίθριος
 Ανεμος από Δ
Ανεμος: Δ 6 km/h
Θερμοκρασία: 29°C
Δείκτη Δυσφορίας: 30°C
Σημ. Δρόσου: 19°C
Υγρασία: 55%
Βαρόμετρο: 1014 hPa
Συνθήκες: Αίθριος
Ορατότητα: πάνω από 10 km
2019/06/25 18:50 LGKR 251850Z 27003KT CAVOK 29/19 Q1014 NOSIG
 
LGSO - Syros Island-Elev 72m
Απόσταση από meteothes.gr: ΝΝΑ 397km
Ενημερώθηκε: 25/06/2019 21:50

 Ανεμος από ΒΒΔ
Ανεμος: ΒΒΔ 28 km/h, Ριπή: 50 km/h
Θερμοκρασία: 28°C
Δείκτη Δυσφορίας: 28°C
Σημ. Δρόσου: 17°C
Υγρασία: 51%
Βαρόμετρο: 1011 hPa
2019/06/25 18:50 LGSO 251850Z AUTO 33015G27KT 310V010 //// // ////// 28/17 Q1011 RE//
LGMK - Mikonos Island-Elev 123m
Απόσταση από meteothes.gr: ΝΝΑ 412km
Ενημερώθηκε: 25/06/2019 21:50
Αίθριος
Αίθριος
 Ανεμος από Β
Ανεμος: Β 41 km/h, Ριπή: 61 km/h
Θερμοκρασία: 26°C
Σημ. Δρόσου: 17°C
Υγρασία: 58%
Βαρόμετρο: 1011 hPa
Συνθήκες: Αίθριος
Ορατότητα: πάνω από 10 km
2019/06/25 18:50 LGMK 251850Z 35022G33KT CAVOK 26/17 Q1011
 
LGSR - Santorini Island-Elev 40m
Απόσταση από meteothes.gr: ΝΝΑ 520km
Ενημερώθηκε: 25/06/2019 21:50
Αίθριος
Αίθριος
 Ανεμος από ΒΒΔ
Ανεμος: ΒΒΔ 9 km/h
Θερμοκρασία: 26°C
Σημ. Δρόσου: 21°C
Υγρασία: 74%
Βαρόμετρο: 1010 hPa
Συνθήκες: Αίθριος
Ορατότητα: πάνω από 10 km
2019/06/25 18:50 LGSR 251850Z 33005KT CAVOK 26/21 Q1010
LGKL - Kalamata-Elev 8m
Απόσταση από meteothes.gr: Ν 405km
Ενημερώθηκε: 25/06/2019 21:50
Διάσπαρτα Nέφη
Διάσπαρτα Nέφη
 Ανεμος από άπνοια
Ανεμος: άπνοια
Θερμοκρασία: 23°C
Σημ. Δρόσου: 17°C
Υγρασία: 69%
Βαρόμετρο: 1013 hPa
Νέφωση: Διάσπαρτα Nέφη
Ορατότητα: 10 km
Λεπτομέρειες Νεφών: Διάσπαρτα Nέφη 914 m
2019/06/25 18:50 LGKL 251850Z 00000KT 9999 FEW030 23/17 Q1013
 
LGIR - Iraklion/Crete-Elev 5m
Απόσταση από meteothes.gr: ΝΝΑ 622km
Ενημερώθηκε: 25/06/2019 21:50
Αίθριος
Αίθριος
 Ανεμος από ΔΒΔ
Ανεμος: ΔΒΔ 17 km/h
Θερμοκρασία: 26°C
Σημ. Δρόσου: 21°C
Υγρασία: 74%
Βαρόμετρο: 1010 hPa
Συνθήκες: Αίθριος
Ορατότητα: πάνω από 10 km
2019/06/25 18:50 LGIR 251850Z 29009KT CAVOK 26/21 Q1010 NOSIG
LGRP - Rhodes-Elev 5m
Απόσταση από meteothes.gr: ΝΑ 649km
Ενημερώθηκε: 25/06/2019 21:50
Διάσπαρτα Nέφη
Διάσπαρτα Nέφη
 Ανεμος από ΔΝΔ
Ανεμος: ΔΝΔ 11 km/h
Θερμοκρασία: 25°C
Σημ. Δρόσου: 24°C
Υγρασία: 94%
Βαρόμετρο: 1009 hPa
Νέφωση: Διάσπαρτα Nέφη
Ορατότητα: 10 km
Λεπτομέρειες Νεφών: Διάσπαρτα Nέφη 610 m
2019/06/25 18:50 LGRP 251850Z 24006KT 9999 FEW020 25/24 Q1009 NOSIG
 
LWOH - Ohrid/FYROM-Elev 761m
Απόσταση από meteothes.gr: ΔΒΔ 188km
Ενημερώθηκε: 25/06/2019 21:30
Μερικώς νεφελώδης
Μερικώς νεφελώδης
 Ανεμος από ΒΒΑ
Ανεμος: ΒΒΑ 20 km/h
Θερμοκρασία: 23°C
Σημ. Δρόσου: 15°C
Υγρασία: 61%
Βαρόμετρο: 1022 hPa
Νέφωση: Μερικώς νεφελώδης
Ορατότητα: 10 km
Λεπτομέρειες Νεφών: Μερικώς νεφελώδης 1006 m
Μερικώς νεφελώδης 1829 m
2019/06/25 18:30 LWOH 251830Z 03011KT 340V080 9999 SCT033 SCT060 23/15 Q1022
LBSF - Sofia/Bulgaria-Elev 595m
Απόσταση από meteothes.gr: Β 227km
Ενημερώθηκε: 25/06/2019 21:30
Μερικώς νεφελώδης
Μερικώς νεφελώδης
 Ανεμος από ΒΔ
Ανεμος: ΒΔ 11 km/h
Θερμοκρασία: 20°C
Σημ. Δρόσου: 16°C
Υγρασία: 78%
Βαρόμετρο: 1023 hPa
Νέφωση: Μερικώς νεφελώδης
Ορατότητα: 10 km
Λεπτομέρειες Νεφών: Μερικώς νεφελώδης 1981 m
2019/06/25 18:30 LBSF 251830Z 31006KT 9999 SCT065 20/16 Q1023 NOSIG

(*) Μερικές αναφορές παρουσιάζουν λιγότερα στοιχεία γιατί οι αρχικές είναι ελλιπείς ή έχουν λάθος μορφοποίηση!

Please disable your adblock and script blockers to view this page